sensor_id;sensor_type;location;lat;lon;timestamp;P1;durP1;ratioP1;P2;durP2;ratioP2
17153;SDS011;8692;52.164;7.558;2023-04-02T00:00:03;4.23;;;3.10;;
17153;SDS011;8692;52.164;7.558;2023-04-02T00:02:44;5.03;;;3.20;;
17153;SDS011;8692;52.164;7.558;2023-04-02T00:08:34;4.87;;;3.30;;
17153;SDS011;8692;52.164;7.558;2023-04-02T00:11:06;4.20;;;3.03;;
17153;SDS011;8692;52.164;7.558;2023-04-02T00:13:37;3.77;;;2.90;;
17153;SDS011;8692;52.164;7.558;2023-04-02T00:16:10;3.67;;;3.37;;
17153;SDS011;8692;52.164;7.558;2023-04-02T00:18:47;3.30;;;3.00;;
17153;SDS011;8692;52.164;7.558;2023-04-02T00:21:19;4.33;;;3.10;;
17153;SDS011;8692;52.164;7.558;2023-04-02T00:23:54;5.97;;;3.40;;
17153;SDS011;8692;52.164;7.558;2023-04-02T00:26:28;3.27;;;2.87;;
17153;SDS011;8692;52.164;7.558;2023-04-02T00:28:58;4.37;;;3.07;;
17153;SDS011;8692;52.164;7.558;2023-04-02T00:31:28;4.47;;;3.30;;
17153;SDS011;8692;52.164;7.558;2023-04-02T00:34:00;4.17;;;3.00;;
17153;SDS011;8692;52.164;7.558;2023-04-02T00:36:31;3.30;;;2.80;;
17153;SDS011;8692;52.164;7.558;2023-04-02T00:39:03;3.20;;;2.70;;
17153;SDS011;8692;52.164;7.558;2023-04-02T00:41:37;4.67;;;2.70;;
17153;SDS011;8692;52.164;7.558;2023-04-02T00:44:15;3.83;;;2.80;;
17153;SDS011;8692;52.164;7.558;2023-04-02T00:46:47;4.37;;;2.43;;
17153;SDS011;8692;52.164;7.558;2023-04-02T00:49:20;3.77;;;2.30;;
17153;SDS011;8692;52.164;7.558;2023-04-02T00:51:55;2.60;;;2.40;;
17153;SDS011;8692;52.164;7.558;2023-04-02T00:54:30;4.10;;;2.63;;
17153;SDS011;8692;52.164;7.558;2023-04-02T00:57:04;3.93;;;3.00;;
17153;SDS011;8692;52.164;7.558;2023-04-02T00:59:46;2.30;;;2.07;;
17153;SDS011;8692;52.164;7.558;2023-04-02T01:02:22;2.90;;;2.30;;
17153;SDS011;8692;52.164;7.558;2023-04-02T01:04:54;2.77;;;2.50;;
17153;SDS011;8692;52.164;7.558;2023-04-02T01:07:32;2.67;;;2.47;;
17153;SDS011;8692;52.164;7.558;2023-04-02T01:10:25;3.03;;;2.70;;
17153;SDS011;8692;52.164;7.558;2023-04-02T01:13:09;3.47;;;2.20;;
17153;SDS011;8692;52.164;7.558;2023-04-02T01:15:47;2.67;;;2.13;;
17153;SDS011;8692;52.164;7.558;2023-04-02T01:18:25;2.70;;;2.50;;
17153;SDS011;8692;52.164;7.558;2023-04-02T01:21:06;2.47;;;2.00;;
17153;SDS011;8692;52.164;7.558;2023-04-02T01:23:52;3.20;;;2.07;;
17153;SDS011;8692;52.164;7.558;2023-04-02T01:26:32;7.57;;;3.43;;
17153;SDS011;8692;52.164;7.558;2023-04-02T01:29:13;5.77;;;3.93;;
17153;SDS011;8692;52.164;7.558;2023-04-02T01:31:43;5.07;;;3.70;;
17153;SDS011;8692;52.164;7.558;2023-04-02T01:34:16;3.70;;;3.13;;
17153;SDS011;8692;52.164;7.558;2023-04-02T01:36:55;5.63;;;3.60;;
17153;SDS011;8692;52.164;7.558;2023-04-02T01:39:51;4.80;;;3.50;;
17153;SDS011;8692;52.164;7.558;2023-04-02T01:42:48;5.00;;;3.80;;
17153;SDS011;8692;52.164;7.558;2023-04-02T01:45:23;6.83;;;4.43;;
17153;SDS011;8692;52.164;7.558;2023-04-02T01:47:54;7.43;;;5.23;;
17153;SDS011;8692;52.164;7.558;2023-04-02T01:50:25;6.17;;;4.30;;
17153;SDS011;8692;52.164;7.558;2023-04-02T01:52:58;3.77;;;3.37;;
17153;SDS011;8692;52.164;7.558;2023-04-02T01:55:30;4.30;;;3.50;;
17153;SDS011;8692;52.164;7.558;2023-04-02T01:58:01;7.90;;;3.87;;
17153;SDS011;8692;52.164;7.558;2023-04-02T02:00:32;8.77;;;4.20;;
17153;SDS011;8692;52.164;7.558;2023-04-02T02:03:06;7.63;;;3.20;;
17153;SDS011;8692;52.164;7.558;2023-04-02T02:05:35;6.67;;;3.27;;
17153;SDS011;8692;52.164;7.558;2023-04-02T02:08:04;6.57;;;3.73;;
17153;SDS011;8692;52.164;7.558;2023-04-02T02:10:56;6.77;;;3.53;;
17153;SDS011;8692;52.164;7.558;2023-04-02T02:13:24;4.80;;;3.27;;
17153;SDS011;8692;52.164;7.558;2023-04-02T02:15:57;3.63;;;3.20;;
17153;SDS011;8692;52.164;7.558;2023-04-02T02:18:27;4.97;;;3.70;;
17153;SDS011;8692;52.164;7.558;2023-04-02T02:20:57;5.50;;;3.60;;
17153;SDS011;8692;52.164;7.558;2023-04-02T02:23:27;5.53;;;3.37;;
17153;SDS011;8692;52.164;7.558;2023-04-02T02:25:56;4.40;;;3.43;;
17153;SDS011;8692;52.164;7.558;2023-04-02T02:28:25;5.67;;;3.10;;
17153;SDS011;8692;52.164;7.558;2023-04-02T02:30:59;6.17;;;3.03;;
17153;SDS011;8692;52.164;7.558;2023-04-02T02:33:35;7.40;;;3.30;;
17153;SDS011;8692;52.164;7.558;2023-04-02T02:36:11;6.30;;;3.43;;
17153;SDS011;8692;52.164;7.558;2023-04-02T02:38:46;5.70;;;3.23;;
17153;SDS011;8692;52.164;7.558;2023-04-02T02:41:27;6.50;;;3.37;;
17153;SDS011;8692;52.164;7.558;2023-04-02T02:44:01;4.90;;;3.00;;
17153;SDS011;8692;52.164;7.558;2023-04-02T02:46:34;6.40;;;3.37;;
17153;SDS011;8692;52.164;7.558;2023-04-02T02:49:08;7.30;;;3.13;;
17153;SDS011;8692;52.164;7.558;2023-04-02T02:51:45;8.27;;;3.97;;
17153;SDS011;8692;52.164;7.558;2023-04-02T02:54:24;7.17;;;3.27;;
17153;SDS011;8692;52.164;7.558;2023-04-02T02:56:54;6.63;;;3.07;;
17153;SDS011;8692;52.164;7.558;2023-04-02T02:59:29;3.50;;;2.67;;
17153;SDS011;8692;52.164;7.558;2023-04-02T03:02:01;3.97;;;2.40;;
17153;SDS011;8692;52.164;7.558;2023-04-02T03:04:30;4.10;;;2.73;;
17153;SDS011;8692;52.164;7.558;2023-04-02T03:07:04;3.57;;;2.63;;
17153;SDS011;8692;52.164;7.558;2023-04-02T03:09:37;5.80;;;2.50;;
17153;SDS011;8692;52.164;7.558;2023-04-02T03:12:15;6.87;;;2.53;;
17153;SDS011;8692;52.164;7.558;2023-04-02T03:15:03;8.83;;;2.53;;
17153;SDS011;8692;52.164;7.558;2023-04-02T03:17:40;4.97;;;2.73;;
17153;SDS011;8692;52.164;7.558;2023-04-02T03:20:18;5.20;;;2.57;;
17153;SDS011;8692;52.164;7.558;2023-04-02T03:22:50;3.33;;;2.07;;
17153;SDS011;8692;52.164;7.558;2023-04-02T03:25:27;6.57;;;2.80;;
17153;SDS011;8692;52.164;7.558;2023-04-02T03:28:06;3.93;;;2.30;;
17153;SDS011;8692;52.164;7.558;2023-04-02T03:30:45;7.93;;;2.80;;
17153;SDS011;8692;52.164;7.558;2023-04-02T03:33:20;2.47;;;2.10;;
17153;SDS011;8692;52.164;7.558;2023-04-02T03:35:55;3.83;;;2.70;;
17153;SDS011;8692;52.164;7.558;2023-04-02T03:38:29;2.93;;;2.17;;
17153;SDS011;8692;52.164;7.558;2023-04-02T03:41:01;2.40;;;2.00;;
17153;SDS011;8692;52.164;7.558;2023-04-02T03:43:35;4.60;;;2.57;;
17153;SDS011;8692;52.164;7.558;2023-04-02T03:46:10;8.17;;;1.97;;
17153;SDS011;8692;52.164;7.558;2023-04-02T03:48:50;5.23;;;2.57;;
17153;SDS011;8692;52.164;7.558;2023-04-02T03:51:22;7.40;;;2.60;;
17153;SDS011;8692;52.164;7.558;2023-04-02T03:53:53;4.93;;;2.20;;
17153;SDS011;8692;52.164;7.558;2023-04-02T03:56:26;6.13;;;2.20;;
17153;SDS011;8692;52.164;7.558;2023-04-02T03:59:01;3.53;;;2.13;;
17153;SDS011;8692;52.164;7.558;2023-04-02T04:01:38;5.30;;;1.73;;
17153;SDS011;8692;52.164;7.558;2023-04-02T04:04:15;3.60;;;2.10;;
17153;SDS011;8692;52.164;7.558;2023-04-02T04:06:47;2.40;;;1.60;;
17153;SDS011;8692;52.164;7.558;2023-04-02T04:09:19;6.10;;;2.13;;
17153;SDS011;8692;52.164;7.558;2023-04-02T04:11:52;5.47;;;1.63;;
17153;SDS011;8692;52.164;7.558;2023-04-02T04:14:30;4.37;;;1.97;;
17153;SDS011;8692;52.164;7.558;2023-04-02T04:17:00;3.03;;;1.57;;
17153;SDS011;8692;52.164;7.558;2023-04-02T04:19:44;3.67;;;1.50;;
17153;SDS011;8692;52.164;7.558;2023-04-02T04:22:16;4.13;;;1.43;;
17153;SDS011;8692;52.164;7.558;2023-04-02T04:24:49;3.80;;;1.57;;
17153;SDS011;8692;52.164;7.558;2023-04-02T04:27:20;6.47;;;1.33;;
17153;SDS011;8692;52.164;7.558;2023-04-02T04:30:05;4.77;;;1.70;;
17153;SDS011;8692;52.164;7.558;2023-04-02T04:32:46;3.80;;;1.53;;
17153;SDS011;8692;52.164;7.558;2023-04-02T04:35:29;4.00;;;1.30;;
17153;SDS011;8692;52.164;7.558;2023-04-02T04:38:05;5.03;;;1.80;;
17153;SDS011;8692;52.164;7.558;2023-04-02T04:40:41;2.80;;;1.50;;
17153;SDS011;8692;52.164;7.558;2023-04-02T04:43:23;2.93;;;1.13;;
17153;SDS011;8692;52.164;7.558;2023-04-02T04:45:59;3.73;;;1.77;;
17153;SDS011;8692;52.164;7.558;2023-04-02T04:48:33;5.53;;;1.90;;
17153;SDS011;8692;52.164;7.558;2023-04-02T04:51:09;3.17;;;1.50;;
17153;SDS011;8692;52.164;7.558;2023-04-02T04:53:46;5.30;;;1.93;;
17153;SDS011;8692;52.164;7.558;2023-04-02T04:56:19;4.53;;;1.50;;
17153;SDS011;8692;52.164;7.558;2023-04-02T04:58:59;3.63;;;1.40;;
17153;SDS011;8692;52.164;7.558;2023-04-02T05:01:33;5.00;;;1.67;;
17153;SDS011;8692;52.164;7.558;2023-04-02T05:04:09;3.60;;;1.43;;
17153;SDS011;8692;52.164;7.558;2023-04-02T05:06:48;4.97;;;2.07;;
17153;SDS011;8692;52.164;7.558;2023-04-02T05:09:21;5.17;;;1.70;;
17153;SDS011;8692;52.164;7.558;2023-04-02T05:11:58;3.53;;;1.73;;
17153;SDS011;8692;52.164;7.558;2023-04-02T05:14:32;3.67;;;1.80;;
17153;SDS011;8692;52.164;7.558;2023-04-02T05:17:06;5.17;;;2.20;;
17153;SDS011;8692;52.164;7.558;2023-04-02T05:19:44;5.03;;;2.20;;
17153;SDS011;8692;52.164;7.558;2023-04-02T05:22:21;5.93;;;1.70;;
17153;SDS011;8692;52.164;7.558;2023-04-02T05:24:56;6.57;;;2.03;;
17153;SDS011;8692;52.164;7.558;2023-04-02T05:27:35;4.27;;;1.50;;
17153;SDS011;8692;52.164;7.558;2023-04-02T05:30:11;3.17;;;1.57;;
17153;SDS011;8692;52.164;7.558;2023-04-02T05:32:49;6.47;;;1.47;;
17153;SDS011;8692;52.164;7.558;2023-04-02T05:35:27;3.07;;;1.67;;
17153;SDS011;8692;52.164;7.558;2023-04-02T05:38:00;2.60;;;1.57;;
17153;SDS011;8692;52.164;7.558;2023-04-02T05:40:30;4.30;;;1.63;;
17153;SDS011;8692;52.164;7.558;2023-04-02T05:43:02;6.10;;;1.50;;
17153;SDS011;8692;52.164;7.558;2023-04-02T05:45:42;2.83;;;1.20;;
17153;SDS011;8692;52.164;7.558;2023-04-02T05:48:18;3.93;;;1.33;;
17153;SDS011;8692;52.164;7.558;2023-04-02T05:50:51;5.03;;;1.43;;
17153;SDS011;8692;52.164;7.558;2023-04-02T05:53:29;5.33;;;1.60;;
17153;SDS011;8692;52.164;7.558;2023-04-02T05:56:02;2.60;;;1.40;;
17153;SDS011;8692;52.164;7.558;2023-04-02T05:58:35;3.80;;;1.17;;
17153;SDS011;8692;52.164;7.558;2023-04-02T06:01:21;5.23;;;1.67;;
17153;SDS011;8692;52.164;7.558;2023-04-02T06:04:04;5.67;;;1.37;;
17153;SDS011;8692;52.164;7.558;2023-04-02T06:06:44;2.03;;;1.17;;
17153;SDS011;8692;52.164;7.558;2023-04-02T06:09:18;2.03;;;1.13;;
17153;SDS011;8692;52.164;7.558;2023-04-02T06:11:57;2.70;;;1.10;;
17153;SDS011;8692;52.164;7.558;2023-04-02T06:14:31;4.30;;;1.40;;
17153;SDS011;8692;52.164;7.558;2023-04-02T06:17:02;4.60;;;1.30;;
17153;SDS011;8692;52.164;7.558;2023-04-02T06:19:32;4.03;;;1.53;;
17153;SDS011;8692;52.164;7.558;2023-04-02T06:22:09;3.13;;;1.27;;
17153;SDS011;8692;52.164;7.558;2023-04-02T06:24:49;4.33;;;1.50;;
17153;SDS011;8692;52.164;7.558;2023-04-02T06:27:21;2.83;;;1.07;;
17153;SDS011;8692;52.164;7.558;2023-04-02T06:29:52;5.03;;;1.37;;
17153;SDS011;8692;52.164;7.558;2023-04-02T06:32:28;3.17;;;1.50;;
17153;SDS011;8692;52.164;7.558;2023-04-02T06:34:57;6.83;;;1.47;;
17153;SDS011;8692;52.164;7.558;2023-04-02T06:37:28;4.00;;;1.10;;
17153;SDS011;8692;52.164;7.558;2023-04-02T06:40:23;4.83;;;1.17;;
17153;SDS011;8692;52.164;7.558;2023-04-02T06:43:28;5.20;;;1.67;;
17153;SDS011;8692;52.164;7.558;2023-04-02T06:46:17;7.17;;;2.23;;
17153;SDS011;8692;52.164;7.558;2023-04-02T06:49:05;2.37;;;1.40;;
17153;SDS011;8692;52.164;7.558;2023-04-02T06:51:43;2.97;;;1.20;;
17153;SDS011;8692;52.164;7.558;2023-04-02T06:54:14;3.10;;;1.33;;
17153;SDS011;8692;52.164;7.558;2023-04-02T06:56:50;5.67;;;1.30;;
17153;SDS011;8692;52.164;7.558;2023-04-02T06:59:26;4.13;;;1.03;;
17153;SDS011;8692;52.164;7.558;2023-04-02T07:01:56;3.50;;;1.43;;
17153;SDS011;8692;52.164;7.558;2023-04-02T07:04:31;3.87;;;1.17;;
17153;SDS011;8692;52.164;7.558;2023-04-02T07:07:02;2.20;;;1.23;;
17153;SDS011;8692;52.164;7.558;2023-04-02T07:09:35;2.43;;;1.40;;
17153;SDS011;8692;52.164;7.558;2023-04-02T07:12:11;6.67;;;1.47;;
17153;SDS011;8692;52.164;7.558;2023-04-02T07:14:41;2.23;;;1.20;;
17153;SDS011;8692;52.164;7.558;2023-04-02T07:17:14;7.53;;;1.27;;
17153;SDS011;8692;52.164;7.558;2023-04-02T07:19:46;5.10;;;1.30;;
17153;SDS011;8692;52.164;7.558;2023-04-02T07:22:18;4.23;;;1.23;;
17153;SDS011;8692;52.164;7.558;2023-04-02T07:24:50;3.23;;;1.47;;
17153;SDS011;8692;52.164;7.558;2023-04-02T07:27:20;2.30;;;1.23;;
17153;SDS011;8692;52.164;7.558;2023-04-02T07:29:48;2.42;;;1.42;;
17153;SDS011;8692;52.164;7.558;2023-04-02T07:32:16;2.57;;;1.33;;
17153;SDS011;8692;52.164;7.558;2023-04-02T07:34:47;3.07;;;1.10;;
17153;SDS011;8692;52.164;7.558;2023-04-02T07:37:15;2.93;;;1.27;;
17153;SDS011;8692;52.164;7.558;2023-04-02T07:39:44;4.65;;;1.42;;
17153;SDS011;8692;52.164;7.558;2023-04-02T07:42:12;6.20;;;1.50;;
17153;SDS011;8692;52.164;7.558;2023-04-02T07:44:44;2.37;;;1.30;;
17153;SDS011;8692;52.164;7.558;2023-04-02T07:47:14;2.63;;;1.10;;
17153;SDS011;8692;52.164;7.558;2023-04-02T07:49:43;4.07;;;0.83;;
17153;SDS011;8692;52.164;7.558;2023-04-02T07:52:13;2.23;;;1.07;;
17153;SDS011;8692;52.164;7.558;2023-04-02T07:54:42;11.47;;;1.63;;
17153;SDS011;8692;52.164;7.558;2023-04-02T07:57:12;2.73;;;1.13;;
17153;SDS011;8692;52.164;7.558;2023-04-02T07:59:40;3.73;;;1.50;;
17153;SDS011;8692;52.164;7.558;2023-04-02T08:02:16;3.67;;;1.33;;
17153;SDS011;8692;52.164;7.558;2023-04-02T08:04:47;3.30;;;1.17;;
17153;SDS011;8692;52.164;7.558;2023-04-02T08:07:16;1.20;;;0.90;;
17153;SDS011;8692;52.164;7.558;2023-04-02T08:09:45;3.23;;;0.80;;
17153;SDS011;8692;52.164;7.558;2023-04-02T08:12:16;3.50;;;1.00;;
17153;SDS011;8692;52.164;7.558;2023-04-02T08:14:45;3.30;;;1.17;;
17153;SDS011;8692;52.164;7.558;2023-04-02T08:17:16;2.27;;;1.00;;
17153;SDS011;8692;52.164;7.558;2023-04-02T08:19:47;3.27;;;1.03;;
17153;SDS011;8692;52.164;7.558;2023-04-02T08:22:20;5.03;;;0.83;;
17153;SDS011;8692;52.164;7.558;2023-04-02T08:24:49;2.17;;;1.13;;
17153;SDS011;8692;52.164;7.558;2023-04-02T08:27:19;1.20;;;0.83;;
17153;SDS011;8692;52.164;7.558;2023-04-02T08:29:47;4.03;;;1.10;;
17153;SDS011;8692;52.164;7.558;2023-04-02T08:32:17;2.17;;;1.27;;
17153;SDS011;8692;52.164;7.558;2023-04-02T08:34:47;2.50;;;0.80;;
17153;SDS011;8692;52.164;7.558;2023-04-02T08:37:18;2.60;;;1.10;;
17153;SDS011;8692;52.164;7.558;2023-04-02T08:39:49;3.23;;;1.10;;
17153;SDS011;8692;52.164;7.558;2023-04-02T08:42:18;3.87;;;1.20;;
17153;SDS011;8692;52.164;7.558;2023-04-02T08:44:52;4.13;;;1.10;;
17153;SDS011;8692;52.164;7.558;2023-04-02T08:47:50;2.03;;;0.90;;
17153;SDS011;8692;52.164;7.558;2023-04-02T08:50:23;3.37;;;0.87;;
17153;SDS011;8692;52.164;7.558;2023-04-02T08:52:56;2.67;;;0.90;;
17153;SDS011;8692;52.164;7.558;2023-04-02T08:55:28;3.27;;;1.10;;
17153;SDS011;8692;52.164;7.558;2023-04-02T08:58:03;3.37;;;0.73;;
17153;SDS011;8692;52.164;7.558;2023-04-02T09:00:40;1.07;;;0.73;;
17153;SDS011;8692;52.164;7.558;2023-04-02T09:03:13;2.30;;;0.90;;
17153;SDS011;8692;52.164;7.558;2023-04-02T09:05:46;3.63;;;0.90;;
17153;SDS011;8692;52.164;7.558;2023-04-02T09:08:19;2.50;;;0.70;;
17153;SDS011;8692;52.164;7.558;2023-04-02T09:10:50;2.13;;;1.00;;
17153;SDS011;8692;52.164;7.558;2023-04-02T09:13:24;1.37;;;0.83;;
17153;SDS011;8692;52.164;7.558;2023-04-02T09:15:55;1.27;;;0.80;;
17153;SDS011;8692;52.164;7.558;2023-04-02T09:18:30;1.50;;;0.90;;
17153;SDS011;8692;52.164;7.558;2023-04-02T09:21:03;5.50;;;1.20;;
17153;SDS011;8692;52.164;7.558;2023-04-02T09:23:45;2.40;;;1.00;;
17153;SDS011;8692;52.164;7.558;2023-04-02T09:26:17;3.03;;;1.37;;
17153;SDS011;8692;52.164;7.558;2023-04-02T09:28:49;3.13;;;0.80;;
17153;SDS011;8692;52.164;7.558;2023-04-02T09:31:22;3.43;;;1.10;;
17153;SDS011;8692;52.164;7.558;2023-04-02T09:34:00;2.50;;;1.20;;
17153;SDS011;8692;52.164;7.558;2023-04-02T09:36:32;1.30;;;0.80;;
17153;SDS011;8692;52.164;7.558;2023-04-02T09:39:03;3.63;;;1.13;;
17153;SDS011;8692;52.164;7.558;2023-04-02T09:41:35;2.67;;;1.10;;
17153;SDS011;8692;52.164;7.558;2023-04-02T09:44:16;2.83;;;1.10;;
17153;SDS011;8692;52.164;7.558;2023-04-02T09:46:48;2.73;;;0.97;;
17153;SDS011;8692;52.164;7.558;2023-04-02T09:49:25;3.60;;;1.30;;
17153;SDS011;8692;52.164;7.558;2023-04-02T09:55:03;2.10;;;1.03;;
17153;SDS011;8692;52.164;7.558;2023-04-02T09:57:50;3.27;;;0.87;;
17153;SDS011;8692;52.164;7.558;2023-04-02T10:00:39;1.27;;;0.80;;
17153;SDS011;8692;52.164;7.558;2023-04-02T10:03:18;2.97;;;1.33;;
17153;SDS011;8692;52.164;7.558;2023-04-02T10:06:06;1.40;;;0.77;;
17153;SDS011;8692;52.164;7.558;2023-04-02T10:08:37;3.43;;;1.00;;
17153;SDS011;8692;52.164;7.558;2023-04-02T10:11:07;1.87;;;0.90;;
17153;SDS011;8692;52.164;7.558;2023-04-02T10:13:42;2.30;;;0.80;;
17153;SDS011;8692;52.164;7.558;2023-04-02T10:16:18;2.97;;;1.03;;
17153;SDS011;8692;52.164;7.558;2023-04-02T10:18:53;3.87;;;1.47;;
17153;SDS011;8692;52.164;7.558;2023-04-02T10:21:30;4.83;;;1.10;;
17153;SDS011;8692;52.164;7.558;2023-04-02T10:24:08;2.60;;;1.10;;
17153;SDS011;8692;52.164;7.558;2023-04-02T10:26:53;1.47;;;1.00;;
17153;SDS011;8692;52.164;7.558;2023-04-02T10:29:47;3.10;;;1.10;;
17153;SDS011;8692;52.164;7.558;2023-04-02T10:32:38;1.77;;;1.13;;
17153;SDS011;8692;52.164;7.558;2023-04-02T10:35:15;2.87;;;1.17;;
17153;SDS011;8692;52.164;7.558;2023-04-02T10:37:59;2.13;;;0.90;;
17153;SDS011;8692;52.164;7.558;2023-04-02T10:40:41;2.23;;;1.13;;
17153;SDS011;8692;52.164;7.558;2023-04-02T10:46:18;4.60;;;1.17;;
17153;SDS011;8692;52.164;7.558;2023-04-02T10:48:53;3.90;;;1.43;;
17153;SDS011;8692;52.164;7.558;2023-04-02T10:51:35;3.67;;;1.27;;
17153;SDS011;8692;52.164;7.558;2023-04-02T10:54:19;2.63;;;1.00;;
17153;SDS011;8692;52.164;7.558;2023-04-02T10:57:04;3.03;;;1.40;;
17153;SDS011;8692;52.164;7.558;2023-04-02T10:59:41;2.47;;;1.27;;
17153;SDS011;8692;52.164;7.558;2023-04-02T11:02:28;3.40;;;1.20;;
17153;SDS011;8692;52.164;7.558;2023-04-02T11:07:55;3.47;;;1.90;;
17153;SDS011;8692;52.164;7.558;2023-04-02T11:10:34;5.23;;;1.83;;
17153;SDS011;8692;52.164;7.558;2023-04-02T11:13:08;2.40;;;1.40;;
17153;SDS011;8692;52.164;7.558;2023-04-02T11:15:44;2.63;;;1.40;;
17153;SDS011;8692;52.164;7.558;2023-04-02T11:18:20;3.27;;;1.40;;
17153;SDS011;8692;52.164;7.558;2023-04-02T11:23:35;4.13;;;1.07;;
17153;SDS011;8692;52.164;7.558;2023-04-02T11:26:32;4.27;;;1.17;;
17153;SDS011;8692;52.164;7.558;2023-04-02T11:29:22;1.43;;;0.90;;
17153;SDS011;8692;52.164;7.558;2023-04-02T11:32:21;3.13;;;1.37;;
17153;SDS011;8692;52.164;7.558;2023-04-02T11:44:32;2.10;;;0.80;;
17153;SDS011;8692;52.164;7.558;2023-04-02T11:47:19;1.43;;;0.80;;
17153;SDS011;8692;52.164;7.558;2023-04-02T11:49:57;1.83;;;1.13;;
17153;SDS011;8692;52.164;7.558;2023-04-02T11:52:33;2.87;;;0.83;;
17153;SDS011;8692;52.164;7.558;2023-04-02T11:55:22;0.70;;;0.67;;
17153;SDS011;8692;52.164;7.558;2023-04-02T11:58:02;2.43;;;0.97;;
17153;SDS011;8692;52.164;7.558;2023-04-02T12:07:33;2.57;;;0.83;;
17153;SDS011;8692;52.164;7.558;2023-04-02T12:10:24;1.70;;;0.90;;
17153;SDS011;8692;52.164;7.558;2023-04-02T12:13:01;2.00;;;0.90;;
17153;SDS011;8692;52.164;7.558;2023-04-02T12:15:41;1.53;;;1.03;;
17153;SDS011;8692;52.164;7.558;2023-04-02T12:18:15;2.50;;;1.20;;
17153;SDS011;8692;52.164;7.558;2023-04-02T12:20:52;0.70;;;0.63;;
17153;SDS011;8692;52.164;7.558;2023-04-02T12:23:25;2.90;;;0.87;;
17153;SDS011;8692;52.164;7.558;2023-04-02T12:25:58;2.47;;;0.97;;
17153;SDS011;8692;52.164;7.558;2023-04-02T12:28:35;3.83;;;1.33;;
17153;SDS011;8692;52.164;7.558;2023-04-02T12:31:11;2.73;;;1.23;;
17153;SDS011;8692;52.164;7.558;2023-04-02T12:33:58;2.93;;;0.80;;
17153;SDS011;8692;52.164;7.558;2023-04-02T12:36:29;2.33;;;0.80;;
17153;SDS011;8692;52.164;7.558;2023-04-02T12:39:01;2.53;;;1.10;;
17153;SDS011;8692;52.164;7.558;2023-04-02T12:41:32;2.03;;;0.87;;
17153;SDS011;8692;52.164;7.558;2023-04-02T12:44:11;2.57;;;1.07;;
17153;SDS011;8692;52.164;7.558;2023-04-02T12:46:49;1.77;;;1.37;;
17153;SDS011;8692;52.164;7.558;2023-04-02T12:49:32;3.20;;;0.90;;
17153;SDS011;8692;52.164;7.558;2023-04-02T12:52:05;1.60;;;0.80;;
17153;SDS011;8692;52.164;7.558;2023-04-02T12:54:43;1.30;;;1.10;;
17153;SDS011;8692;52.164;7.558;2023-04-02T12:57:19;2.97;;;1.20;;
17153;SDS011;8692;52.164;7.558;2023-04-02T12:59:52;3.87;;;1.10;;
17153;SDS011;8692;52.164;7.558;2023-04-02T13:02:27;2.60;;;0.83;;
17153;SDS011;8692;52.164;7.558;2023-04-02T13:05:05;2.10;;;0.90;;
17153;SDS011;8692;52.164;7.558;2023-04-02T13:07:41;1.13;;;0.80;;
17153;SDS011;8692;52.164;7.558;2023-04-02T13:10:22;3.40;;;0.90;;
17153;SDS011;8692;52.164;7.558;2023-04-02T13:12:54;3.73;;;0.90;;
17153;SDS011;8692;52.164;7.558;2023-04-02T13:15:29;1.60;;;0.83;;
17153;SDS011;8692;52.164;7.558;2023-04-02T13:18:12;3.43;;;0.70;;
17153;SDS011;8692;52.164;7.558;2023-04-02T13:20:56;1.40;;;0.90;;
17153;SDS011;8692;52.164;7.558;2023-04-02T13:23:31;1.17;;;0.80;;
17153;SDS011;8692;52.164;7.558;2023-04-02T13:26:11;1.33;;;0.73;;
17153;SDS011;8692;52.164;7.558;2023-04-02T13:28:54;3.40;;;0.97;;
17153;SDS011;8692;52.164;7.558;2023-04-02T13:31:26;2.27;;;0.80;;
17153;SDS011;8692;52.164;7.558;2023-04-02T13:33:56;1.67;;;0.80;;
17153;SDS011;8692;52.164;7.558;2023-04-02T13:36:31;2.10;;;0.80;;
17153;SDS011;8692;52.164;7.558;2023-04-02T13:39:01;1.83;;;0.83;;
17153;SDS011;8692;52.164;7.558;2023-04-02T13:41:38;2.07;;;0.80;;
17153;SDS011;8692;52.164;7.558;2023-04-02T13:44:19;0.97;;;0.70;;
17153;SDS011;8692;52.164;7.558;2023-04-02T13:46:54;1.90;;;0.70;;
17153;SDS011;8692;52.164;7.558;2023-04-02T13:49:30;1.27;;;0.77;;
17153;SDS011;8692;52.164;7.558;2023-04-02T13:52:01;2.30;;;0.87;;
17153;SDS011;8692;52.164;7.558;2023-04-02T13:54:32;2.77;;;1.27;;
17153;SDS011;8692;52.164;7.558;2023-04-02T13:57:12;3.10;;;0.77;;
17153;SDS011;8692;52.164;7.558;2023-04-02T13:59:45;1.27;;;0.60;;
17153;SDS011;8692;52.164;7.558;2023-04-02T14:02:19;2.30;;;0.70;;
17153;SDS011;8692;52.164;7.558;2023-04-02T14:04:56;2.87;;;1.20;;
17153;SDS011;8692;52.164;7.558;2023-04-02T14:07:40;2.70;;;1.00;;
17153;SDS011;8692;52.164;7.558;2023-04-02T14:10:21;2.93;;;0.90;;
17153;SDS011;8692;52.164;7.558;2023-04-02T14:13:04;2.60;;;0.90;;
17153;SDS011;8692;52.164;7.558;2023-04-02T14:15:47;2.93;;;0.90;;
17153;SDS011;8692;52.164;7.558;2023-04-02T14:18:34;1.63;;;0.70;;
17153;SDS011;8692;52.164;7.558;2023-04-02T14:21:16;1.00;;;0.83;;
17153;SDS011;8692;52.164;7.558;2023-04-02T14:24:09;0.80;;;0.60;;
17153;SDS011;8692;52.164;7.558;2023-04-02T14:26:49;3.27;;;1.10;;
17153;SDS011;8692;52.164;7.558;2023-04-02T14:29:35;1.00;;;0.70;;
17153;SDS011;8692;52.164;7.558;2023-04-02T14:32:13;1.33;;;0.90;;
17153;SDS011;8692;52.164;7.558;2023-04-02T14:34:49;2.30;;;0.90;;
17153;SDS011;8692;52.164;7.558;2023-04-02T14:37:32;2.33;;;0.93;;
17153;SDS011;8692;52.164;7.558;2023-04-02T14:40:14;3.27;;;0.90;;
17153;SDS011;8692;52.164;7.558;2023-04-02T14:42:54;1.97;;;0.73;;
17153;SDS011;8692;52.164;7.558;2023-04-02T14:45:36;4.37;;;1.10;;
17153;SDS011;8692;52.164;7.558;2023-04-02T14:51:19;2.13;;;0.80;;
17153;SDS011;8692;52.164;7.558;2023-04-02T14:53:57;1.60;;;0.87;;
17153;SDS011;8692;52.164;7.558;2023-04-02T14:56:37;4.50;;;1.00;;
17153;SDS011;8692;52.164;7.558;2023-04-02T14:59:24;2.13;;;0.97;;
17153;SDS011;8692;52.164;7.558;2023-04-02T15:02:02;2.67;;;0.80;;
17153;SDS011;8692;52.164;7.558;2023-04-02T15:04:38;1.30;;;0.83;;
17153;SDS011;8692;52.164;7.558;2023-04-02T15:07:17;2.50;;;0.90;;
17153;SDS011;8692;52.164;7.558;2023-04-02T15:09:52;0.60;;;0.60;;
17153;SDS011;8692;52.164;7.558;2023-04-02T15:12:31;4.40;;;1.10;;
17153;SDS011;8692;52.164;7.558;2023-04-02T15:15:06;3.77;;;1.30;;
17153;SDS011;8692;52.164;7.558;2023-04-02T15:18:04;3.00;;;1.00;;
17153;SDS011;8692;52.164;7.558;2023-04-02T15:20:51;2.23;;;1.00;;
17153;SDS011;8692;52.164;7.558;2023-04-02T15:23:33;2.57;;;1.10;;
17153;SDS011;8692;52.164;7.558;2023-04-02T15:26:17;3.10;;;0.90;;
17153;SDS011;8692;52.164;7.558;2023-04-02T15:28:59;1.93;;;1.00;;
17153;SDS011;8692;52.164;7.558;2023-04-02T15:31:45;2.70;;;0.80;;
17153;SDS011;8692;52.164;7.558;2023-04-02T15:34:18;1.77;;;0.80;;
17153;SDS011;8692;52.164;7.558;2023-04-02T15:37:00;2.67;;;0.97;;
17153;SDS011;8692;52.164;7.558;2023-04-02T15:39:47;2.63;;;0.97;;
17153;SDS011;8692;52.164;7.558;2023-04-02T15:42:50;1.07;;;0.90;;
17153;SDS011;8692;52.164;7.558;2023-04-02T15:45:38;2.03;;;0.60;;
17153;SDS011;8692;52.164;7.558;2023-04-02T15:48:20;1.40;;;0.70;;
17153;SDS011;8692;52.164;7.558;2023-04-02T15:51:35;3.10;;;1.00;;
17153;SDS011;8692;52.164;7.558;2023-04-02T15:54:36;1.53;;;0.83;;
17153;SDS011;8692;52.164;7.558;2023-04-02T15:57:23;1.73;;;1.10;;
17153;SDS011;8692;52.164;7.558;2023-04-02T16:00:16;2.03;;;0.87;;
17153;SDS011;8692;52.164;7.558;2023-04-02T16:09:06;2.57;;;1.03;;
17153;SDS011;8692;52.164;7.558;2023-04-02T16:11:45;2.30;;;0.83;;
17153;SDS011;8692;52.164;7.558;2023-04-02T16:14:17;2.20;;;0.80;;
17153;SDS011;8692;52.164;7.558;2023-04-02T16:16:53;2.00;;;0.80;;
17153;SDS011;8692;52.164;7.558;2023-04-02T16:19:39;2.93;;;0.90;;
17153;SDS011;8692;52.164;7.558;2023-04-02T16:22:13;1.43;;;0.60;;
17153;SDS011;8692;52.164;7.558;2023-04-02T16:24:48;2.60;;;0.70;;
17153;SDS011;8692;52.164;7.558;2023-04-02T16:27:27;1.63;;;0.53;;
17153;SDS011;8692;52.164;7.558;2023-04-02T16:30:04;3.40;;;0.97;;
17153;SDS011;8692;52.164;7.558;2023-04-02T16:32:55;1.43;;;0.77;;
17153;SDS011;8692;52.164;7.558;2023-04-02T16:35:37;1.63;;;0.80;;
17153;SDS011;8692;52.164;7.558;2023-04-02T16:38:16;3.80;;;1.00;;